Miller, Nebraska
Current Conditions -  °F | °C
As of 8:15 AM on Thursday 18 Dec 2014 (Local Time) from KLXN Reporting Station
Overcast Overcast  
Wind Chill: -7°   Ceiling: 700
Heat Index: -4°   Visibility: 10mi
Dew Point: -5°   Wind: 5mph
Humidity: 92%   Direction: 200°SSW
Pressure: 30.14"   Gusts: NA
Location:  40.93°N, 99.39°W
Report Text: KLXN 181415Z AUTO 20004KT 10SM OVC007 M04/M05 A3014 RMK AO2 T10361047
Loading
Personal Weather Stations






























Interactive Weather Map New forecast layout! Learn more

10-Day Weather Forecast

Advertisements
Track Severe Weather on mobile